createdAt,value
2022-11-20T00:04:22.826Z,7.90
2022-11-20T00:09:53.083Z,7.80
2022-11-20T00:12:43.907Z,7.80
2022-11-20T00:15:35.845Z,7.80
2022-11-20T00:18:27.545Z,7.80
2022-11-20T00:24:04.617Z,7.70
2022-11-20T00:26:56.048Z,7.70
2022-11-20T00:29:47.770Z,7.70
2022-11-20T00:32:39.173Z,7.80
2022-11-20T00:35:30.613Z,7.80
2022-11-20T00:38:21.875Z,7.70
2022-11-20T00:41:14.722Z,7.70
2022-11-20T00:44:06.689Z,7.70
2022-11-20T00:49:37.084Z,7.80
2022-11-20T00:52:28.271Z,7.70
2022-11-20T00:55:19.819Z,7.80
2022-11-20T00:58:14.278Z,7.90
2022-11-20T01:01:09.052Z,7.80
2022-11-20T01:06:43.342Z,7.70
2022-11-20T01:09:34.763Z,7.70
2022-11-20T01:12:25.896Z,7.60
2022-11-20T01:17:56.367Z,7.70
2022-11-20T01:20:47.824Z,7.80
2022-11-20T01:23:41.851Z,7.90
2022-11-20T01:29:17.296Z,7.80
2022-11-20T01:32:09.538Z,7.80
2022-11-20T01:35:01.150Z,7.90
2022-11-20T01:40:33.756Z,7.90
2022-11-20T01:43:26.567Z,7.90
2022-11-20T01:49:08.239Z,7.90
2022-11-20T01:52:02.184Z,7.90
2022-11-20T01:54:56.179Z,7.90
2022-11-20T02:00:28.490Z,7.90
2022-11-20T02:03:21.508Z,7.80
2022-11-20T02:08:54.540Z,7.80
2022-11-20T02:14:26.841Z,7.80
2022-11-20T02:17:19.497Z,7.80
2022-11-20T02:20:12.425Z,7.80
2022-11-20T02:25:43.951Z,7.80
2022-11-20T02:28:35.917Z,7.70
2022-11-20T02:34:05.518Z,7.70
2022-11-20T02:36:57.331Z,7.70
2022-11-20T02:39:51.262Z,7.80
2022-11-20T02:45:21.322Z,7.50
2022-11-20T02:48:12.665Z,7.40
2022-11-20T02:51:04.658Z,7.30
2022-11-20T02:53:56.045Z,7.20
2022-11-20T02:59:25.688Z,7.10
2022-11-20T03:02:17.723Z,7.00
2022-11-20T03:05:09.645Z,6.90
2022-11-20T03:08:00.855Z,6.90
2022-11-20T03:10:52.398Z,6.80
2022-11-20T03:13:43.482Z,6.80
2022-11-20T03:16:35.296Z,6.70
2022-11-20T03:19:26.507Z,6.70
2022-11-20T03:22:17.813Z,6.70
2022-11-20T03:25:10.912Z,6.80
2022-11-20T03:28:02.490Z,6.80
2022-11-20T03:30:53.811Z,6.90
2022-11-20T03:33:46.173Z,6.90
2022-11-20T03:36:39.534Z,7.00
2022-11-20T03:39:30.889Z,7.10
2022-11-20T03:42:39.951Z,7.20
2022-11-20T03:45:31.406Z,7.30
2022-11-20T03:48:23.512Z,7.40
2022-11-20T03:53:55.961Z,7.30
2022-11-20T03:59:25.823Z,7.30
2022-11-20T04:02:17.308Z,7.30
2022-11-20T04:05:10.815Z,7.20
2022-11-20T04:08:02.012Z,7.10
2022-11-20T04:10:53.526Z,7.10
2022-11-20T04:13:46.697Z,6.90
2022-11-20T04:19:19.271Z,6.80
2022-11-20T04:22:12.734Z,6.90
2022-11-20T04:25:04.159Z,6.70
2022-11-20T04:27:55.654Z,6.50
2022-11-20T04:30:47.667Z,6.50
2022-11-20T04:33:39.414Z,6.50
2022-11-20T04:36:31.999Z,6.50
2022-11-20T04:39:23.868Z,6.60
2022-11-20T04:44:54.473Z,6.50
2022-11-20T04:47:45.536Z,6.50
2022-11-20T04:50:36.850Z,6.60
2022-11-20T04:53:28.899Z,6.70
2022-11-20T04:56:20.498Z,6.70
2022-11-20T04:59:12.042Z,6.70
2022-11-20T05:02:03.725Z,6.80
2022-11-20T05:04:54.818Z,6.70
2022-11-20T05:07:46.461Z,6.70
2022-11-20T05:10:37.756Z,6.70
2022-11-20T05:13:30.059Z,6.70
2022-11-20T05:16:23.271Z,6.70
2022-11-20T05:19:14.980Z,6.70
2022-11-20T05:22:07.275Z,6.70
2022-11-20T05:24:58.736Z,6.70
2022-11-20T05:30:41.709Z,6.60
2022-11-20T05:33:33.245Z,6.50
2022-11-20T05:36:25.192Z,6.50
2022-11-20T05:39:16.452Z,6.50
2022-11-20T05:42:25.648Z,6.60
2022-11-20T05:45:17.906Z,6.60
2022-11-20T05:48:09.461Z,6.70
2022-11-20T05:51:02.484Z,6.70
2022-11-20T05:53:54.039Z,6.60
2022-11-20T05:56:45.508Z,6.60
2022-11-20T05:59:36.800Z,6.50
2022-11-20T06:02:28.538Z,6.60
2022-11-20T06:05:20.229Z,6.60
2022-11-20T06:08:11.831Z,6.50
2022-11-20T06:11:08.068Z,6.50
2022-11-20T06:13:59.259Z,6.60
2022-11-20T06:19:29.687Z,6.60
2022-11-20T06:22:20.602Z,6.60
2022-11-20T06:25:12.323Z,6.50
2022-11-20T06:28:04.033Z,6.50
2022-11-20T06:30:55.987Z,6.40
2022-11-20T06:36:33.040Z,6.40
2022-11-20T06:39:24.699Z,6.40
2022-11-20T06:42:15.889Z,6.40
2022-11-20T06:45:08.952Z,6.40
2022-11-20T06:48:01.598Z,6.30
2022-11-20T06:50:52.891Z,6.30
2022-11-20T06:53:44.046Z,6.40
2022-11-20T06:56:35.422Z,6.30
2022-11-20T06:59:26.910Z,6.30
2022-11-20T07:02:19.927Z,6.30
2022-11-20T07:05:11.417Z,6.30
2022-11-20T07:08:03.712Z,6.10
2022-11-20T07:10:55.573Z,6.10
2022-11-20T07:13:46.985Z,6.00
2022-11-20T07:20:05.144Z,6.00
2022-11-20T07:22:57.954Z,6.10
2022-11-20T07:25:49.552Z,6.20
2022-11-20T07:31:19.937Z,6.30
2022-11-20T07:34:11.224Z,6.30
2022-11-20T07:39:41.669Z,6.20
2022-11-20T07:42:33.079Z,6.30
2022-11-20T07:45:28.724Z,6.40
2022-11-20T07:48:19.914Z,6.40
2022-11-20T07:51:11.738Z,6.40
2022-11-20T07:54:05.306Z,6.40
2022-11-20T07:59:37.239Z,6.50
2022-11-20T08:02:29.965Z,6.60
2022-11-20T08:05:23.225Z,6.70
2022-11-20T08:08:14.663Z,6.70
2022-11-20T08:11:24.017Z,6.80
2022-11-20T08:14:15.425Z,6.90
2022-11-20T08:17:06.916Z,7.00
2022-11-20T08:19:58.098Z,7.00
2022-11-20T08:22:49.410Z,7.10
2022-11-20T08:25:41.234Z,7.10
2022-11-20T08:28:32.953Z,7.20
2022-11-20T08:34:09.172Z,7.20
2022-11-20T08:36:59.224Z,7.30
2022-11-20T08:39:50.693Z,7.30
2022-11-20T08:45:21.499Z,7.40
2022-11-20T08:48:13.024Z,7.50
2022-11-20T08:51:04.578Z,7.60
2022-11-20T08:53:56.009Z,7.60
2022-11-20T08:59:50.915Z,7.70
2022-11-20T09:04:59.416Z,7.80
2022-11-20T09:07:50.209Z,7.80
2022-11-20T09:10:41.730Z,7.90
2022-11-20T09:13:34.207Z,7.90
2022-11-20T09:19:35.038Z,8.00
2022-11-20T09:22:01.363Z,8.00
2022-11-20T09:24:53.105Z,8.00
2022-11-20T09:27:46.440Z,8.10
2022-11-20T09:33:23.053Z,8.30
2022-11-20T09:36:14.323Z,8.30
2022-11-20T09:39:06.168Z,8.40
2022-11-20T09:42:19.395Z,8.50
2022-11-20T09:45:19.862Z,8.60
2022-11-20T09:48:25.749Z,8.60
2022-11-20T09:54:09.732Z,8.70
2022-11-20T09:59:43.117Z,8.80
2022-11-20T10:02:37.765Z,8.80
2022-11-20T10:05:32.765Z,8.80
2022-11-20T10:08:27.463Z,8.80
2022-11-20T10:14:04.875Z,8.70
2022-11-20T10:17:01.970Z,8.60
2022-11-20T10:20:01.338Z,8.80
2022-11-20T10:23:00.797Z,9.00
2022-11-20T10:25:55.430Z,9.20
2022-11-20T10:28:58.739Z,9.20
2022-11-20T10:34:32.492Z,9.30
2022-11-20T10:40:08.954Z,9.40
2022-11-20T10:43:03.512Z,9.30
2022-11-20T10:45:58.728Z,9.30
2022-11-20T10:48:50.767Z,9.40
2022-11-20T10:54:27.200Z,9.40
2022-11-20T11:00:06.544Z,9.40
2022-11-20T11:02:58.543Z,9.50
2022-11-20T11:05:53.013Z,9.50
2022-11-20T11:08:45.578Z,9.50
2022-11-20T11:14:17.491Z,9.60
2022-11-20T11:17:21.788Z,9.50
2022-11-20T11:20:20.680Z,9.60
2022-11-20T11:23:27.072Z,9.60
2022-11-20T11:29:07.201Z,9.60
2022-11-20T11:32:08.855Z,9.70
2022-11-20T11:35:04.909Z,9.70
2022-11-20T11:37:58.969Z,9.80
2022-11-20T11:40:50.417Z,9.80
2022-11-20T11:43:59.387Z,9.80
2022-11-20T11:49:33.452Z,9.90
2022-11-20T11:55:11.706Z,10.20
2022-11-20T11:58:12.268Z,10.20
2022-11-20T12:01:07.266Z,10.30
2022-11-20T12:04:04.102Z,10.40
2022-11-20T12:09:39.042Z,10.60
2022-11-20T12:17:53.438Z,10.80
2022-11-20T12:20:47.988Z,10.80
2022-11-20T12:23:44.836Z,10.80
2022-11-20T12:26:47.583Z,10.90
2022-11-20T12:29:45.800Z,11.00
2022-11-20T12:33:14.524Z,11.00
2022-11-20T12:39:35.908Z,10.80
2022-11-20T12:43:04.948Z,10.80
2022-11-20T12:48:57.270Z,10.80
2022-11-20T12:55:18.815Z,10.80
2022-11-20T12:58:13.956Z,10.80
2022-11-20T13:01:08.360Z,10.90
2022-11-20T13:04:06.473Z,10.90
2022-11-20T13:06:56.661Z,11.00
2022-11-20T13:09:51.122Z,11.00
2022-11-20T13:12:45.536Z,11.00
2022-11-20T13:15:46.183Z,11.10
2022-11-20T13:18:43.666Z,11.20
2022-11-20T13:21:41.914Z,11.20
2022-11-20T13:24:32.920Z,11.20
2022-11-20T13:27:25.573Z,11.20
2022-11-20T13:30:22.381Z,11.20
2022-11-20T13:33:25.975Z,11.10
2022-11-20T13:36:26.898Z,11.10
2022-11-20T13:39:27.863Z,11.10
2022-11-20T13:42:28.055Z,11.10
2022-11-20T13:45:29.047Z,11.20
2022-11-20T13:48:26.872Z,11.20
2022-11-20T13:51:26.960Z,11.20
2022-11-20T13:55:08.981Z,11.30
2022-11-20T13:58:08.481Z,11.30
2022-11-20T14:01:02.997Z,11.30
2022-11-20T14:04:11.135Z,11.30
2022-11-20T14:06:51.312Z,11.30
2022-11-20T14:09:44.304Z,11.20
2022-11-20T14:12:40.829Z,11.10
2022-11-20T14:15:34.845Z,11.10
2022-11-20T14:18:27.493Z,11.00
2022-11-20T14:21:26.459Z,11.00
2022-11-20T14:24:19.489Z,10.90
2022-11-20T14:27:17.206Z,10.90
2022-11-20T14:30:15.010Z,10.80
2022-11-20T14:33:07.348Z,10.80
2022-11-20T14:36:00.482Z,10.80
2022-11-20T14:38:52.660Z,10.80
2022-11-20T14:41:47.865Z,10.80
2022-11-20T14:44:39.822Z,10.90
2022-11-20T14:47:34.334Z,11.00
2022-11-20T14:50:28.923Z,10.90
2022-11-20T14:56:06.673Z,10.70
2022-11-20T14:59:01.148Z,10.60
2022-11-20T15:01:59.998Z,10.50
2022-11-20T15:04:52.461Z,10.50
2022-11-20T15:07:47.168Z,10.50
2022-11-20T15:10:39.336Z,10.40
2022-11-20T15:13:33.150Z,10.30
2022-11-20T15:16:28.051Z,10.30
2022-11-20T15:19:22.539Z,10.20
2022-11-20T15:22:17.151Z,10.20
2022-11-20T15:25:15.858Z,10.20
2022-11-20T15:28:13.420Z,10.20
2022-11-20T15:31:05.685Z,10.20
2022-11-20T15:33:57.424Z,10.10
2022-11-20T15:36:49.006Z,10.10
2022-11-20T15:39:40.706Z,10.10
2022-11-20T15:42:32.328Z,10.00
2022-11-20T15:45:23.806Z,10.00
2022-11-20T15:48:18.128Z,10.00
2022-11-20T15:51:16.038Z,9.90
2022-11-20T15:54:13.580Z,10.00
2022-11-20T15:57:05.006Z,10.00
2022-11-20T15:59:56.028Z,10.10
2022-11-20T16:02:47.889Z,10.10
2022-11-20T16:05:39.200Z,10.00
2022-11-20T16:08:30.662Z,9.90
2022-11-20T16:11:22.176Z,9.80
2022-11-20T16:14:51.297Z,9.70
2022-11-20T16:20:22.731Z,9.50
2022-11-20T16:23:13.468Z,9.50
2022-11-20T16:26:11.792Z,9.50
2022-11-20T16:29:06.163Z,9.50
2022-11-20T16:31:58.836Z,9.40
2022-11-20T16:34:50.377Z,9.30
2022-11-20T16:37:41.616Z,9.30
2022-11-20T16:40:33.110Z,9.30
2022-11-20T16:43:24.661Z,9.30
2022-11-20T16:46:16.485Z,9.30
2022-11-20T16:49:10.555Z,9.30
2022-11-20T16:52:02.590Z,9.40
2022-11-20T16:54:53.550Z,9.40
2022-11-20T16:57:44.874Z,9.30
2022-11-20T17:00:38.550Z,9.30
2022-11-20T17:03:29.943Z,9.30
2022-11-20T17:06:24.187Z,9.30
2022-11-20T17:09:15.690Z,9.40
2022-11-20T17:12:08.539Z,9.40
2022-11-20T17:15:00.097Z,9.50
2022-11-20T17:17:51.315Z,9.40
2022-11-20T17:20:42.909Z,9.40
2022-11-20T17:23:35.155Z,9.40
2022-11-20T17:26:28.452Z,9.50
2022-11-20T17:29:23.032Z,9.50
2022-11-20T17:32:14.363Z,9.50
2022-11-20T17:35:07.133Z,9.40
2022-11-20T17:37:58.205Z,9.50
2022-11-20T17:40:50.216Z,9.50
2022-11-20T17:43:42.860Z,9.50
2022-11-20T17:46:35.446Z,9.50
2022-11-20T17:49:26.933Z,9.50
2022-11-20T17:52:18.392Z,9.60
2022-11-20T17:55:11.257Z,9.60
2022-11-20T17:58:04.288Z,9.60
2022-11-20T18:00:55.729Z,9.50
2022-11-20T18:03:46.940Z,9.50
2022-11-20T18:06:38.069Z,9.50
2022-11-20T18:09:29.457Z,9.50
2022-11-20T18:12:20.661Z,9.50
2022-11-20T18:15:12.347Z,9.50
2022-11-20T18:18:03.568Z,9.40
2022-11-20T18:20:56.607Z,9.30
2022-11-20T18:23:48.438Z,9.20
2022-11-20T18:26:44.294Z,9.20
2022-11-20T18:29:33.025Z,9.10
2022-11-20T18:35:02.732Z,9.10
2022-11-20T18:37:53.867Z,9.00
2022-11-20T18:40:44.926Z,9.00
2022-11-20T18:46:13.995Z,8.90
2022-11-20T18:49:05.138Z,8.90
2022-11-20T18:51:56.381Z,8.90
2022-11-20T18:54:47.701Z,8.90
2022-11-20T18:57:39.292Z,8.90
2022-11-20T19:00:30.587Z,8.90
2022-11-20T19:03:22.161Z,8.90
2022-11-20T19:06:16.689Z,8.90
2022-11-20T19:09:09.282Z,8.90
2022-11-20T19:12:00.703Z,8.90
2022-11-20T19:14:52.796Z,8.90
2022-11-20T19:17:44.317Z,8.80
2022-11-20T19:20:38.581Z,8.80
2022-11-20T19:23:29.929Z,8.70
2022-11-20T19:26:22.228Z,8.80
2022-11-20T19:29:16.649Z,8.80
2022-11-20T19:32:08.124Z,8.80
2022-11-20T19:34:59.385Z,8.80
2022-11-20T19:37:52.772Z,8.80
2022-11-20T19:40:44.416Z,8.70
2022-11-20T19:46:15.736Z,8.70
2022-11-20T19:49:10.936Z,8.70
2022-11-20T19:52:02.408Z,8.70
2022-11-20T19:57:33.119Z,8.70
2022-11-20T20:03:03.844Z,8.80
2022-11-20T20:05:54.428Z,8.80
2022-11-20T20:11:26.275Z,8.80
2022-11-20T20:14:19.374Z,8.80
2022-11-20T20:17:10.516Z,8.80
2022-11-20T20:20:02.168Z,8.80
2022-11-20T20:22:53.317Z,8.80
2022-11-20T20:25:46.991Z,8.80
2022-11-20T20:28:39.613Z,8.80
2022-11-20T20:31:32.564Z,8.80
2022-11-20T20:34:23.784Z,8.80
2022-11-20T20:37:14.591Z,8.80
2022-11-20T20:40:10.961Z,8.80
2022-11-20T20:43:00.242Z,8.70
2022-11-20T20:45:52.574Z,8.70
2022-11-20T20:51:23.031Z,8.70
2022-11-20T20:56:54.091Z,8.50
2022-11-20T20:59:44.722Z,8.40
2022-11-20T21:02:35.796Z,8.40
2022-11-20T21:05:28.687Z,8.30
2022-11-20T21:11:04.119Z,8.20
2022-11-20T21:16:37.466Z,8.10
2022-11-20T21:19:28.496Z,8.10
2022-11-20T21:22:19.598Z,8.20
2022-11-20T21:25:11.573Z,8.20
2022-11-20T21:28:02.513Z,8.20
2022-11-20T21:30:53.904Z,8.20
2022-11-20T21:36:26.776Z,8.10
2022-11-20T21:39:19.356Z,8.00
2022-11-20T21:42:10.809Z,8.00
2022-11-20T21:45:02.334Z,7.90
2022-11-20T21:47:54.554Z,7.90
2022-11-20T21:53:25.812Z,7.80
2022-11-20T21:56:20.676Z,7.80
2022-11-20T21:59:15.089Z,7.80
2022-11-20T22:02:08.137Z,7.80
2022-11-20T22:05:01.299Z,7.80
2022-11-20T22:07:52.722Z,7.80
2022-11-20T22:10:49.770Z,8.00
2022-11-20T22:16:21.336Z,8.00
2022-11-20T22:21:54.051Z,7.90
2022-11-20T22:27:31.830Z,7.90
2022-11-20T22:33:06.698Z,7.90
2022-11-20T22:36:02.241Z,7.90
2022-11-20T22:38:54.016Z,8.00
2022-11-20T22:41:46.330Z,8.00
2022-11-20T22:44:37.857Z,8.00
2022-11-20T22:47:29.260Z,8.00
2022-11-20T22:50:20.830Z,7.90
2022-11-20T22:53:12.401Z,7.90
2022-11-20T22:56:06.844Z,7.90
2022-11-20T23:01:40.710Z,7.90
2022-11-20T23:04:32.276Z,7.90
2022-11-20T23:07:23.667Z,7.90
2022-11-20T23:10:15.273Z,7.90
2022-11-20T23:13:07.095Z,7.90
2022-11-20T23:16:03.542Z,7.90
2022-11-20T23:18:57.998Z,7.80
2022-11-20T23:21:51.996Z,7.80
2022-11-20T23:24:43.618Z,7.70
2022-11-20T23:27:37.030Z,7.70
2022-11-20T23:33:09.055Z,7.70
2022-11-20T23:36:00.181Z,7.60
2022-11-20T23:41:34.792Z,7.50
2022-11-20T23:47:05.160Z,7.50
2022-11-20T23:49:56.552Z,7.40
2022-11-20T23:52:48.069Z,7.40
2022-11-20T23:55:39.581Z,7.30
2022-11-20T23:58:33.442Z,7.30
